Fabius, NY

7:52 AM EST on January 29, 2015 (GMT -0500)
Barbland Farms | Change Station
CLOSE
Current Station
Personal Weather Station
Location: Fabius, NY
Elevation: 1280 ft
Nearby Weather Stations
Active Advisory: Winter Weather Advisory

Elev 1280 ft 42.84 °N, 75.97 °W | Updated 16 days ago

Partly Cloudy
Partly Cloudy
14 °F
Feels Like 3 °F
N
8
Wind Variable Wind from SE
Gusts 9 mph

Today
High -- | Low -- °F
--% Chance of Precip.
Yesterday
High -- | Low -- °F
Precip. -- in
7:21 AM 5:12 PM
Waxing Gibbous, 74% visible
Pressure 30.26 in
Visibility 10.0 miles
Clouds Scattered Clouds 18000 ft
Mostly Cloudy 22000 ft
Windchill 3 °F
Dew Point 2 °F
Humidity 59%
Rainfall 0.06 in
Snow Depth Not available.
UV 0 out of 12
Pollen .10 out of 12
Air Quality Not available.
Flu Activity Not available.
METAR KSYR 291154Z 09004KT 10SM SCT180 BKN220 M17/M18 A3024 RMK AO2 SLP247 4/002 T11721183 11150 21172 58015 $

More Conditions Fewer Conditions

Pressure 30.26 in
Visibility 10.0 miles
Clouds Scattered Clouds 18000 ft
Mostly Cloudy 22000 ft
Windchill 3 °F
Dew Point 2 °F
Humidity 59%
Rainfall 0.06 in
Snow Depth Not available.
UV 0 out of 12
Pollen .10 out of 12
Air Quality Not available.
Flu Activity Not available.
METAR KSYR 291154Z 09004KT 10SM SCT180 BKN220 M17/M18 A3024 RMK AO2 SLP247 4/002 T11721183 11150 21172 58015 $

More Conditions Fewer Conditions

10-Day Weather Forecast

Almanac

Astronomy

Jan. 29, 2015 Rise Set
Actual Time
Civil Twilight
Nautical Twilight
Astronomical Twilight
Moon
Length of Visible Light
Length of Day
Tomorrow will be .
, % of the Moon is Illuminated

Today's Extremes

State Highs State Lows

Community

WunderPhotos

Upload Photos

1,791,420 photos uploaded!

WunderBlogs® & News

Nearby

Air Quality

  Air Quality AQ Index Pollutant
Not available.

Snow Depth

Station Depth Elevation

Earthquake Activity

City Distance Mag. Time & Date
Minimum magnitude displayed is 2.5.

Coastal Water Temperatures

Place Temperature

Nearby Weather Stations